Terminal Aerodrome Forecast
Issued by NWS Wilmington, OH

Current Version | Previous Version | Graphics & Text | Print | Product List | Glossary On
Versions: 1 2 3 4 5 6 7 8 9 10 11 12 13 14 15 16 17 18 19
000
FTUS41 KILN 302300 RRA
TAFCMH
TAF
KCMH 302342Z 0100/0124 34005KT P6SM SCT017
     FM010300 VRB03KT 5SM BR OVC012
      TEMPO 0108/0112 2SM BR OVC007
     FM011500 06003KT P6SM BKN012
     FM011700 31005KT P6SM BKN040=

USA.gov is the U.S. government's official web portal to all federal, state and local government web resources and services.